Amstetten, Austria
Current Conditions -  °F | °C
As of 6:20 AM on Thursday 27 Nov 2014 (Local Time) from LOWL Reporting Station
Broken Clouds Broken Clouds  
Wind Chill: 26°   Ceiling: 14000
Heat Index: 32°   Visibility: 5mi
Dew Point: 30°   Wind: 6mph
Humidity: 93%   Direction: 70°ENE
Pressure: 29.91"   Gusts: NA
Location:  48.13°N, 14.86°E
Report Text: LOWL 270520Z 07005KT 8000 FEW110 BKN140 00/M01 Q1013 NOSIG
Loading
Personal Weather Stations






























Interactive Weather Map New forecast layout! Learn more

10-Day Weather Forecast

Advertisements
Track Severe Weather on mobile